• Join FlightAware (Why Join?)
  • Login
  • US Flag 
06:22AM EDT


 

Airport Tracker/Info


-or-


 

Live Flight TrackerFlight Track Log ✈ SKW6335 ✈ 29-Apr-2013 ✈ KLAX - KSAN

Flight Track Log - Related Links

Times and Time Zones

All times are in EDT time to prevent confusion due to time zone crossing. See the SKW6335 flight status page for this flight to view local times or setup timezone preferences in your user account.

Time Position Orientation Groundspeed Altitude Reporting Facility
EDT Latitude Longitude Course Direction KTS MPH feet Rate Location/Type
05:55PM 33.9167 -118.4667 140° Southeast 175 201 2,800  Level Southern California TRACON
05:56PM 33.8833 -118.4667 180° South 176 203 4,500 1,560 Climbing Southern California TRACON
05:57PM 33.7529 -118.2140 140° Southeast  Level Estimated
05:57PM 33.8375 -118.4619 175° South 178 205 5,900  Level Los Angeles Center
05:58PM 33.6897 -118.1495 139° Southeast  Level Estimated
05:58PM 33.7781 -118.4544 174° South 186 214 7,900  Level Los Angeles Center
05:59PM 33.6266 -118.0847 139° Southeast  Level FlightAware Approximate
05:59PM 33.7269 -118.4383 165° South 197 227 9,000  Level Los Angeles Center
06:00PM 33.5635 -118.0201 140° Southeast  Level FlightAware Approximate
06:00PM 33.6886 -118.3628 121° Southeast 224 258 9,000  Level Los Angeles Center
06:01PM 33.6589 -118.3003 120° Southeast 222 255 9,000 -60 Level Los Angeles Center
06:02PM 33.6300 -118.2386 119° Southeast 216 249 8,900 -60 Descending Los Angeles Center
06:03PM 33.5986 -118.1739 120° Southeast 222 255 8,900  Level Los Angeles Center
06:04PM 33.5639 -118.1050 121° Southeast 237 273 8,900  Level Los Angeles Center
06:05PM 33.5211 -118.0194 121° Southeast 245 282 8,900  Level Los Angeles Center
06:06PM 33.4847 -117.9531 123° Southeast 242 278 8,900  Level Los Angeles Center
06:07PM 33.4464 -117.8883 125° Southeast 240 276 8,900  Level Los Angeles Center
06:08PM 33.4167 -117.8333 123° Southeast 238 274 8,900  Level Southern California TRACON
06:09PM 33.3667 -117.7833 140° Southeast 235 270 8,900 60 Level Southern California TRACON
06:09PM 33.3564 -117.7539 113° Southeast 236 272 9,000 60 Climbing Los Angeles Center
06:10PM 33.3150 -117.6958 130° Southeast 230 265 9,000  Level Los Angeles Center
06:11PM 33.2758 -117.6392 130° Southeast 224 258 9,000 -120 Level Los Angeles Center
06:12PM 33.2500 -117.6167 144° Southeast 215 247 8,900 -120 Descending Southern California TRACON
06:13PM 33.2000 -117.5667 140° Southeast 215 247 8,900  Level Southern California TRACON
06:15PM 33.1294 -117.5194 151° Southeast 211 243 9,000  Climbing Los Angeles Center
06:16PM 33.0706 -117.4728 146° Southeast 212 244 9,000  Level Los Angeles Center
06:17PM 33.0225 -117.4336 146° Southeast 211 243 9,000 -120 Level Los Angeles Center
06:18PM 32.9647 -117.3844 144° Southeast 212 244 8,800 -840 Descending Los Angeles Center
06:19PM 32.9128 -117.3406 145° Southeast 224 258 7,300 -900 Descending Los Angeles Center
06:20PM 32.8675 -117.2869 135° Southeast 231 266 7,000 -780 Descending Los Angeles Center
06:21PM 32.8183 -117.2261 134° Southeast 217 250 5,700 -960 Descending Los Angeles Center
06:22PM 32.7819 -117.1778 132° Southeast 202 232 5,000 -660 Descending Los Angeles Center
06:23PM 32.7667 -117.1167 107° East 194 223 4,400 -600 Descending Southern California TRACON